sensor_id;sensor_type;location;lat;lon;timestamp;temperature;humidity
5276;DHT22;2661;50.786;12.728;2023-03-22T00:01:22;8.70;1.00
5276;DHT22;2661;50.786;12.728;2023-03-22T00:03:49;8.60;1.00
5276;DHT22;2661;50.786;12.728;2023-03-22T00:06:17;8.50;1.00
5276;DHT22;2661;50.786;12.728;2023-03-22T00:08:43;8.50;1.00
5276;DHT22;2661;50.786;12.728;2023-03-22T00:11:11;8.50;1.00
5276;DHT22;2661;50.786;12.728;2023-03-22T00:13:38;8.40;1.00
5276;DHT22;2661;50.786;12.728;2023-03-22T00:16:04;8.40;1.00
5276;DHT22;2661;50.786;12.728;2023-03-22T00:18:31;8.50;5.90
5276;DHT22;2661;50.786;12.728;2023-03-22T00:20:58;8.40;1.00
5276;DHT22;2661;50.786;12.728;2023-03-22T00:23:25;8.30;1.00
5276;DHT22;2661;50.786;12.728;2023-03-22T00:25:52;8.30;99.90
5276;DHT22;2661;50.786;12.728;2023-03-22T00:28:19;8.30;99.90
5276;DHT22;2661;50.786;12.728;2023-03-22T00:30:53;8.20;38.60
5276;DHT22;2661;50.786;12.728;2023-03-22T00:33:20;8.20;1.00
5276;DHT22;2661;50.786;12.728;2023-03-22T00:35:47;8.20;1.00
5276;DHT22;2661;50.786;12.728;2023-03-22T00:38:14;8.10;1.00
5276;DHT22;2661;50.786;12.728;2023-03-22T00:40:41;8.10;99.90
5276;DHT22;2661;50.786;12.728;2023-03-22T00:43:07;8.00;99.90
5276;DHT22;2661;50.786;12.728;2023-03-22T00:45:34;8.00;99.90
5276;DHT22;2661;50.786;12.728;2023-03-22T00:48:06;8.00;41.10
5276;DHT22;2661;50.786;12.728;2023-03-22T00:50:33;8.00;1.00
5276;DHT22;2661;50.786;12.728;2023-03-22T00:53:00;8.10;32.30
5276;DHT22;2661;50.786;12.728;2023-03-22T00:55:27;8.10;99.90
5276;DHT22;2661;50.786;12.728;2023-03-22T00:57:53;8.10;99.90
5276;DHT22;2661;50.786;12.728;2023-03-22T01:00:20;8.10;1.00
5276;DHT22;2661;50.786;12.728;2023-03-22T01:02:46;8.00;99.90
5276;DHT22;2661;50.786;12.728;2023-03-22T01:05:13;8.00;99.90
5276;DHT22;2661;50.786;12.728;2023-03-22T01:07:41;7.90;99.90
5276;DHT22;2661;50.786;12.728;2023-03-22T01:10:08;7.90;99.90
5276;DHT22;2661;50.786;12.728;2023-03-22T01:12:35;8.00;99.90
5276;DHT22;2661;50.786;12.728;2023-03-22T01:15:02;7.90;1.00
5276;DHT22;2661;50.786;12.728;2023-03-22T01:17:29;7.90;99.90
5276;DHT22;2661;50.786;12.728;2023-03-22T01:19:55;7.90;99.90
5276;DHT22;2661;50.786;12.728;2023-03-22T01:22:22;7.90;1.00
5276;DHT22;2661;50.786;12.728;2023-03-22T01:24:48;7.90;1.00
5276;DHT22;2661;50.786;12.728;2023-03-22T01:27:15;7.80;68.80
5276;DHT22;2661;50.786;12.728;2023-03-22T01:29:42;7.80;37.80
5276;DHT22;2661;50.786;12.728;2023-03-22T01:32:08;7.80;27.20
5276;DHT22;2661;50.786;12.728;2023-03-22T01:34:35;7.80;99.90
5276;DHT22;2661;50.786;12.728;2023-03-22T01:37:01;7.70;99.90
5276;DHT22;2661;50.786;12.728;2023-03-22T01:39:28;7.70;71.70
5276;DHT22;2661;50.786;12.728;2023-03-22T01:41:54;7.60;1.00
5276;DHT22;2661;50.786;12.728;2023-03-22T01:44:21;7.50;1.00
5276;DHT22;2661;50.786;12.728;2023-03-22T01:46:49;7.50;1.00
5276;DHT22;2661;50.786;12.728;2023-03-22T01:49:18;7.50;1.00
5276;DHT22;2661;50.786;12.728;2023-03-22T01:51:47;7.40;1.00
5276;DHT22;2661;50.786;12.728;2023-03-22T01:54:20;7.40;99.90
5276;DHT22;2661;50.786;12.728;2023-03-22T01:56:49;7.30;1.00
5276;DHT22;2661;50.786;12.728;2023-03-22T01:59:16;7.20;99.90
5276;DHT22;2661;50.786;12.728;2023-03-22T02:01:43;7.20;97.40
5276;DHT22;2661;50.786;12.728;2023-03-22T02:04:16;7.10;99.90
5276;DHT22;2661;50.786;12.728;2023-03-22T02:06:45;7.10;99.90
5276;DHT22;2661;50.786;12.728;2023-03-22T02:09:13;7.00;99.90
5276;DHT22;2661;50.786;12.728;2023-03-22T02:11:43;7.00;1.00
5276;DHT22;2661;50.786;12.728;2023-03-22T02:16:59;6.90;1.00
5276;DHT22;2661;50.786;12.728;2023-03-22T02:25:04;6.70;99.90
5276;DHT22;2661;50.786;12.728;2023-03-22T02:30:36;6.60;1.00
5276;DHT22;2661;50.786;12.728;2023-03-22T02:41:24;6.40;1.00
5276;DHT22;2661;50.786;12.728;2023-03-22T02:43:59;6.30;1.00
5276;DHT22;2661;50.786;12.728;2023-03-22T02:46:29;6.30;1.00
5276;DHT22;2661;50.786;12.728;2023-03-22T02:51:40;6.20;1.00
5276;DHT22;2661;50.786;12.728;2023-03-22T02:54:08;6.20;1.00
5276;DHT22;2661;50.786;12.728;2023-03-22T02:56:43;6.10;99.90
5276;DHT22;2661;50.786;12.728;2023-03-22T02:59:12;6.10;99.90
5276;DHT22;2661;50.786;12.728;2023-03-22T03:01:49;6.00;1.00
5276;DHT22;2661;50.786;12.728;2023-03-22T03:04:18;6.10;1.00
5276;DHT22;2661;50.786;12.728;2023-03-22T03:06:46;6.10;99.90
5276;DHT22;2661;50.786;12.728;2023-03-22T03:09:14;6.10;99.90
5276;DHT22;2661;50.786;12.728;2023-03-22T03:11:47;6.10;99.90
5276;DHT22;2661;50.786;12.728;2023-03-22T03:14:21;6.00;99.90
5276;DHT22;2661;50.786;12.728;2023-03-22T03:16:50;6.10;99.90
5276;DHT22;2661;50.786;12.728;2023-03-22T03:19:24;6.00;99.90
5276;DHT22;2661;50.786;12.728;2023-03-22T03:21:54;6.00;1.00
5276;DHT22;2661;50.786;12.728;2023-03-22T03:24:58;6.10;1.00
5276;DHT22;2661;50.786;12.728;2023-03-22T03:27:19;6.00;1.00
5276;DHT22;2661;50.786;12.728;2023-03-22T03:30:07;5.90;1.00
5276;DHT22;2661;50.786;12.728;2023-03-22T03:32:43;6.00;99.90
5276;DHT22;2661;50.786;12.728;2023-03-22T03:35:13;6.00;99.90
5276;DHT22;2661;50.786;12.728;2023-03-22T03:37:52;6.00;99.90
5276;DHT22;2661;50.786;12.728;2023-03-22T03:40:21;6.00;1.00
5276;DHT22;2661;50.786;12.728;2023-03-22T03:42:49;6.00;1.00
5276;DHT22;2661;50.786;12.728;2023-03-22T03:45:17;6.00;1.00
5276;DHT22;2661;50.786;12.728;2023-03-22T03:47:45;6.00;99.90
5276;DHT22;2661;50.786;12.728;2023-03-22T03:50:13;5.90;99.90
5276;DHT22;2661;50.786;12.728;2023-03-22T03:52:41;5.90;86.20
5276;DHT22;2661;50.786;12.728;2023-03-22T03:55:08;5.90;99.90
5276;DHT22;2661;50.786;12.728;2023-03-22T03:57:35;5.80;44.20
5276;DHT22;2661;50.786;12.728;2023-03-22T04:00:01;5.90;99.90
5276;DHT22;2661;50.786;12.728;2023-03-22T04:02:29;5.80;99.90
5276;DHT22;2661;50.786;12.728;2023-03-22T04:04:56;5.90;1.00
5276;DHT22;2661;50.786;12.728;2023-03-22T04:07:22;5.80;1.00
5276;DHT22;2661;50.786;12.728;2023-03-22T04:09:49;5.70;1.00
5276;DHT22;2661;50.786;12.728;2023-03-22T04:12:15;5.70;1.00
5276;DHT22;2661;50.786;12.728;2023-03-22T04:14:42;5.60;1.00
5276;DHT22;2661;50.786;12.728;2023-03-22T04:17:09;5.50;1.00
5276;DHT22;2661;50.786;12.728;2023-03-22T04:19:35;5.60;1.00
5276;DHT22;2661;50.786;12.728;2023-03-22T04:22:02;5.60;1.00
5276;DHT22;2661;50.786;12.728;2023-03-22T04:24:28;5.60;42.60
5276;DHT22;2661;50.786;12.728;2023-03-22T04:26:55;5.80;1.00
5276;DHT22;2661;50.786;12.728;2023-03-22T04:29:22;5.80;1.00
5276;DHT22;2661;50.786;12.728;2023-03-22T04:31:49;5.90;99.90
5276;DHT22;2661;50.786;12.728;2023-03-22T04:34:18;5.90;24.70
5276;DHT22;2661;50.786;12.728;2023-03-22T04:36:45;5.80;98.70
5276;DHT22;2661;50.786;12.728;2023-03-22T04:39:12;5.80;1.00
5276;DHT22;2661;50.786;12.728;2023-03-22T04:41:39;5.70;53.30
5276;DHT22;2661;50.786;12.728;2023-03-22T04:44:05;5.70;99.90
5276;DHT22;2661;50.786;12.728;2023-03-22T04:46:56;5.60;99.90
5276;DHT22;2661;50.786;12.728;2023-03-22T04:49:47;5.70;99.90
5276;DHT22;2661;50.786;12.728;2023-03-22T04:52:14;5.70;99.90
5276;DHT22;2661;50.786;12.728;2023-03-22T04:54:40;5.80;99.90
5276;DHT22;2661;50.786;12.728;2023-03-22T04:57:07;5.90;23.10
5276;DHT22;2661;50.786;12.728;2023-03-22T04:59:34;5.80;22.00
5276;DHT22;2661;50.786;12.728;2023-03-22T05:02:00;5.80;99.90
5276;DHT22;2661;50.786;12.728;2023-03-22T05:04:27;5.70;99.90
5276;DHT22;2661;50.786;12.728;2023-03-22T05:06:53;5.70;1.00
5276;DHT22;2661;50.786;12.728;2023-03-22T05:09:20;5.70;1.00
5276;DHT22;2661;50.786;12.728;2023-03-22T05:11:49;5.70;99.90
5276;DHT22;2661;50.786;12.728;2023-03-22T05:14:15;5.70;99.90
5276;DHT22;2661;50.786;12.728;2023-03-22T05:16:42;5.70;99.90
5276;DHT22;2661;50.786;12.728;2023-03-22T05:19:08;5.80;1.00
5276;DHT22;2661;50.786;12.728;2023-03-22T05:21:40;5.80;1.00
5276;DHT22;2661;50.786;12.728;2023-03-22T05:24:07;5.80;1.00
5276;DHT22;2661;50.786;12.728;2023-03-22T05:26:34;5.80;1.00
5276;DHT22;2661;50.786;12.728;2023-03-22T05:29:03;5.70;1.00
5276;DHT22;2661;50.786;12.728;2023-03-22T05:31:30;5.80;1.00
5276;DHT22;2661;50.786;12.728;2023-03-22T05:33:59;5.80;1.00
5276;DHT22;2661;50.786;12.728;2023-03-22T05:36:26;5.80;1.00
5276;DHT22;2661;50.786;12.728;2023-03-22T05:38:55;5.80;29.70
5276;DHT22;2661;50.786;12.728;2023-03-22T05:41:22;5.90;1.00
5276;DHT22;2661;50.786;12.728;2023-03-22T05:43:48;5.80;1.00
5276;DHT22;2661;50.786;12.728;2023-03-22T05:46:16;5.90;18.80
5276;DHT22;2661;50.786;12.728;2023-03-22T05:48:42;5.90;1.00
5276;DHT22;2661;50.786;12.728;2023-03-22T05:51:11;5.90;1.00
5276;DHT22;2661;50.786;12.728;2023-03-22T05:53:43;5.90;1.00
5276;DHT22;2661;50.786;12.728;2023-03-22T05:56:10;5.80;99.90
5276;DHT22;2661;50.786;12.728;2023-03-22T05:58:37;6.00;99.90
5276;DHT22;2661;50.786;12.728;2023-03-22T06:01:08;6.00;1.00
5276;DHT22;2661;50.786;12.728;2023-03-22T06:03:37;6.00;1.00
5276;DHT22;2661;50.786;12.728;2023-03-22T06:06:04;6.00;1.00
5276;DHT22;2661;50.786;12.728;2023-03-22T06:08:32;6.10;1.00
5276;DHT22;2661;50.786;12.728;2023-03-22T06:10:59;6.10;1.00
5276;DHT22;2661;50.786;12.728;2023-03-22T06:13:26;6.20;99.90
5276;DHT22;2661;50.786;12.728;2023-03-22T06:15:52;6.30;99.90
5276;DHT22;2661;50.786;12.728;2023-03-22T06:18:19;6.30;99.90
5276;DHT22;2661;50.786;12.728;2023-03-22T06:20:46;6.30;1.00
5276;DHT22;2661;50.786;12.728;2023-03-22T06:23:13;6.30;1.00
5276;DHT22;2661;50.786;12.728;2023-03-22T06:25:39;6.40;99.90
5276;DHT22;2661;50.786;12.728;2023-03-22T06:28:06;6.40;1.00
5276;DHT22;2661;50.786;12.728;2023-03-22T06:30:34;6.40;1.00
5276;DHT22;2661;50.786;12.728;2023-03-22T06:33:00;6.30;1.00
5276;DHT22;2661;50.786;12.728;2023-03-22T06:35:31;6.30;99.90
5276;DHT22;2661;50.786;12.728;2023-03-22T06:37:57;6.30;1.00
5276;DHT22;2661;50.786;12.728;2023-03-22T06:40:24;6.30;1.00
5276;DHT22;2661;50.786;12.728;2023-03-22T06:42:51;6.30;1.00
5276;DHT22;2661;50.786;12.728;2023-03-22T06:45:20;6.30;1.00
5276;DHT22;2661;50.786;12.728;2023-03-22T06:47:46;6.30;99.90
5276;DHT22;2661;50.786;12.728;2023-03-22T06:50:13;6.30;99.90
5276;DHT22;2661;50.786;12.728;2023-03-22T06:52:41;6.40;1.00
5276;DHT22;2661;50.786;12.728;2023-03-22T06:55:07;6.40;1.00
5276;DHT22;2661;50.786;12.728;2023-03-22T06:57:34;6.40;1.00
5276;DHT22;2661;50.786;12.728;2023-03-22T07:00:01;6.40;1.00
5276;DHT22;2661;50.786;12.728;2023-03-22T07:02:28;6.40;99.90
5276;DHT22;2661;50.786;12.728;2023-03-22T07:04:54;6.40;99.90
5276;DHT22;2661;50.786;12.728;2023-03-22T07:07:21;6.40;99.90
5276;DHT22;2661;50.786;12.728;2023-03-22T07:09:47;6.50;1.00
5276;DHT22;2661;50.786;12.728;2023-03-22T07:12:15;6.50;1.00
5276;DHT22;2661;50.786;12.728;2023-03-22T07:14:42;6.60;1.00
5276;DHT22;2661;50.786;12.728;2023-03-22T07:17:08;6.70;99.90
5276;DHT22;2661;50.786;12.728;2023-03-22T07:19:37;6.80;1.00
5276;DHT22;2661;50.786;12.728;2023-03-22T07:22:04;6.90;99.90
5276;DHT22;2661;50.786;12.728;2023-03-22T07:24:30;7.00;99.90
5276;DHT22;2661;50.786;12.728;2023-03-22T07:26:57;7.20;86.20
5276;DHT22;2661;50.786;12.728;2023-03-22T07:29:23;7.40;99.90
5276;DHT22;2661;50.786;12.728;2023-03-22T07:31:50;7.60;99.90
5276;DHT22;2661;50.786;12.728;2023-03-22T07:34:16;7.90;1.00
5276;DHT22;2661;50.786;12.728;2023-03-22T07:36:44;8.10;90.70
5276;DHT22;2661;50.786;12.728;2023-03-22T07:39:10;8.30;1.00
5276;DHT22;2661;50.786;12.728;2023-03-22T07:41:37;8.50;1.00
5276;DHT22;2661;50.786;12.728;2023-03-22T07:44:04;8.70;99.90
5276;DHT22;2661;50.786;12.728;2023-03-22T07:46:43;8.80;99.90
5276;DHT22;2661;50.786;12.728;2023-03-22T07:49:10;9.20;99.90
5276;DHT22;2661;50.786;12.728;2023-03-22T07:51:36;9.50;99.90
5276;DHT22;2661;50.786;12.728;2023-03-22T07:54:03;9.80;99.90
5276;DHT22;2661;50.786;12.728;2023-03-22T07:56:32;10.10;99.90
5276;DHT22;2661;50.786;12.728;2023-03-22T07:58:59;10.30;99.90
5276;DHT22;2661;50.786;12.728;2023-03-22T08:01:26;10.40;99.90
5276;DHT22;2661;50.786;12.728;2023-03-22T08:03:52;10.60;99.90
5276;DHT22;2661;50.786;12.728;2023-03-22T08:06:19;10.70;99.90
5276;DHT22;2661;50.786;12.728;2023-03-22T08:08:46;10.80;99.90
5276;DHT22;2661;50.786;12.728;2023-03-22T08:11:13;10.80;99.90
5276;DHT22;2661;50.786;12.728;2023-03-22T08:13:40;10.90;99.90
5276;DHT22;2661;50.786;12.728;2023-03-22T08:16:06;10.90;99.90
5276;DHT22;2661;50.786;12.728;2023-03-22T08:18:35;10.90;99.90
5276;DHT22;2661;50.786;12.728;2023-03-22T08:21:01;10.80;99.90
5276;DHT22;2661;50.786;12.728;2023-03-22T08:23:28;10.80;99.90
5276;DHT22;2661;50.786;12.728;2023-03-22T08:26:07;10.70;99.90
5276;DHT22;2661;50.786;12.728;2023-03-22T08:28:34;10.70;99.90
5276;DHT22;2661;50.786;12.728;2023-03-22T08:31:00;10.70;99.90
5276;DHT22;2661;50.786;12.728;2023-03-22T08:33:27;10.80;99.90
5276;DHT22;2661;50.786;12.728;2023-03-22T08:36:06;11.00;99.90
5276;DHT22;2661;50.786;12.728;2023-03-22T08:38:33;11.20;99.90
5276;DHT22;2661;50.786;12.728;2023-03-22T08:41:00;11.30;99.90
5276;DHT22;2661;50.786;12.728;2023-03-22T08:43:26;11.50;99.90
5276;DHT22;2661;50.786;12.728;2023-03-22T08:45:53;11.60;99.90
5276;DHT22;2661;50.786;12.728;2023-03-22T08:48:20;11.80;99.90
5276;DHT22;2661;50.786;12.728;2023-03-22T08:50:46;11.90;99.90
5276;DHT22;2661;50.786;12.728;2023-03-22T08:53:13;12.00;99.90
5276;DHT22;2661;50.786;12.728;2023-03-22T08:55:39;12.20;99.90
5276;DHT22;2661;50.786;12.728;2023-03-22T08:58:14;12.30;99.90
5276;DHT22;2661;50.786;12.728;2023-03-22T09:00:41;12.40;99.90
5276;DHT22;2661;50.786;12.728;2023-03-22T09:03:14;12.50;99.90
5276;DHT22;2661;50.786;12.728;2023-03-22T09:05:41;12.60;99.90
5276;DHT22;2661;50.786;12.728;2023-03-22T09:08:08;12.60;99.90
5276;DHT22;2661;50.786;12.728;2023-03-22T09:10:44;12.70;99.90
5276;DHT22;2661;50.786;12.728;2023-03-22T09:13:13;12.80;99.90
5276;DHT22;2661;50.786;12.728;2023-03-22T09:15:42;12.80;99.90
5276;DHT22;2661;50.786;12.728;2023-03-22T09:18:09;12.90;99.90
5276;DHT22;2661;50.786;12.728;2023-03-22T09:20:36;12.80;99.90
5276;DHT22;2661;50.786;12.728;2023-03-22T09:23:04;12.80;99.90
5276;DHT22;2661;50.786;12.728;2023-03-22T09:25:30;12.80;99.90
5276;DHT22;2661;50.786;12.728;2023-03-22T09:27:57;12.70;99.90
5276;DHT22;2661;50.786;12.728;2023-03-22T09:30:23;12.80;99.90
5276;DHT22;2661;50.786;12.728;2023-03-22T09:32:50;12.80;99.90
5276;DHT22;2661;50.786;12.728;2023-03-22T09:35:17;12.80;99.90
5276;DHT22;2661;50.786;12.728;2023-03-22T09:37:44;12.90;99.90
5276;DHT22;2661;50.786;12.728;2023-03-22T09:40:11;13.00;99.90
5276;DHT22;2661;50.786;12.728;2023-03-22T09:42:41;13.10;99.90
5276;DHT22;2661;50.786;12.728;2023-03-22T09:45:14;13.10;99.90
5276;DHT22;2661;50.786;12.728;2023-03-22T09:47:45;13.10;99.90
5276;DHT22;2661;50.786;12.728;2023-03-22T09:50:14;13.10;99.90
5276;DHT22;2661;50.786;12.728;2023-03-22T09:52:41;13.00;99.90
5276;DHT22;2661;50.786;12.728;2023-03-22T09:55:16;12.90;99.90
5276;DHT22;2661;50.786;12.728;2023-03-22T09:57:43;12.90;99.90
5276;DHT22;2661;50.786;12.728;2023-03-22T10:00:21;12.80;99.90
5276;DHT22;2661;50.786;12.728;2023-03-22T10:05:19;12.60;99.90
5276;DHT22;2661;50.786;12.728;2023-03-22T10:10:18;12.70;97.90
5276;DHT22;2661;50.786;12.728;2023-03-22T10:15:36;12.80;99.90
5276;DHT22;2661;50.786;12.728;2023-03-22T10:18:05;12.90;99.90
5276;DHT22;2661;50.786;12.728;2023-03-22T10:20:42;13.10;99.90
5276;DHT22;2661;50.786;12.728;2023-03-22T10:23:15;13.30;99.90
5276;DHT22;2661;50.786;12.728;2023-03-22T10:25:43;13.50;99.90
5276;DHT22;2661;50.786;12.728;2023-03-22T10:28:14;13.70;99.90
5276;DHT22;2661;50.786;12.728;2023-03-22T10:30:41;13.80;99.90
5276;DHT22;2661;50.786;12.728;2023-03-22T10:33:11;13.80;99.90
5276;DHT22;2661;50.786;12.728;2023-03-22T10:35:39;13.90;99.90
5276;DHT22;2661;50.786;12.728;2023-03-22T10:38:07;14.00;99.90
5276;DHT22;2661;50.786;12.728;2023-03-22T10:40:38;14.00;99.90
5276;DHT22;2661;50.786;12.728;2023-03-22T10:43:22;14.00;99.90
5276;DHT22;2661;50.786;12.728;2023-03-22T10:45:51;14.00;99.90
5276;DHT22;2661;50.786;12.728;2023-03-22T10:50:46;14.20;99.90
5276;DHT22;2661;50.786;12.728;2023-03-22T10:53:27;14.20;99.90
5276;DHT22;2661;50.786;12.728;2023-03-22T10:55:55;14.10;99.90
5276;DHT22;2661;50.786;12.728;2023-03-22T10:58:27;14.00;99.90
5276;DHT22;2661;50.786;12.728;2023-03-22T11:00:58;13.80;99.90
5276;DHT22;2661;50.786;12.728;2023-03-22T11:06:26;13.60;99.90
5276;DHT22;2661;50.786;12.728;2023-03-22T11:08:46;13.50;99.90
5276;DHT22;2661;50.786;12.728;2023-03-22T11:11:20;13.50;99.90
5276;DHT22;2661;50.786;12.728;2023-03-22T11:13:49;13.50;99.90
5276;DHT22;2661;50.786;12.728;2023-03-22T11:16:17;13.50;99.90
5276;DHT22;2661;50.786;12.728;2023-03-22T11:18:43;13.40;99.90
5276;DHT22;2661;50.786;12.728;2023-03-22T11:21:10;13.60;99.90
5276;DHT22;2661;50.786;12.728;2023-03-22T11:23:39;13.70;99.90
5276;DHT22;2661;50.786;12.728;2023-03-22T11:26:10;13.80;99.90
5276;DHT22;2661;50.786;12.728;2023-03-22T11:28:48;14.00;99.90
5276;DHT22;2661;50.786;12.728;2023-03-22T11:31:16;14.00;99.90
5276;DHT22;2661;50.786;12.728;2023-03-22T11:36:18;14.20;99.90
5276;DHT22;2661;50.786;12.728;2023-03-22T11:38:44;14.20;99.90
5276;DHT22;2661;50.786;12.728;2023-03-22T11:41:24;14.30;99.90
5276;DHT22;2661;50.786;12.728;2023-03-22T11:43:54;14.30;99.90
5276;DHT22;2661;50.786;12.728;2023-03-22T11:46:22;14.30;99.90
5276;DHT22;2661;50.786;12.728;2023-03-22T11:48:50;14.40;99.90
5276;DHT22;2661;50.786;12.728;2023-03-22T11:51:24;14.40;99.90
5276;DHT22;2661;50.786;12.728;2023-03-22T11:53:54;14.40;99.90
5276;DHT22;2661;50.786;12.728;2023-03-22T11:56:25;14.40;99.90
5276;DHT22;2661;50.786;12.728;2023-03-22T12:01:29;14.40;99.90
5276;DHT22;2661;50.786;12.728;2023-03-22T12:03:57;14.60;99.90
5276;DHT22;2661;50.786;12.728;2023-03-22T12:06:25;14.70;99.90
5276;DHT22;2661;50.786;12.728;2023-03-22T12:08:55;14.80;99.90
5276;DHT22;2661;50.786;12.728;2023-03-22T12:11:36;14.80;99.90
5276;DHT22;2661;50.786;12.728;2023-03-22T12:16:51;15.00;99.90
5276;DHT22;2661;50.786;12.728;2023-03-22T12:19:37;15.10;99.90
5276;DHT22;2661;50.786;12.728;2023-03-22T12:22:12;15.10;99.90
5276;DHT22;2661;50.786;12.728;2023-03-22T12:24:39;15.20;99.90
5276;DHT22;2661;50.786;12.728;2023-03-22T12:29:38;15.30;99.90
5276;DHT22;2661;50.786;12.728;2023-03-22T12:32:23;15.40;99.90
5276;DHT22;2661;50.786;12.728;2023-03-22T12:34:51;15.40;99.90
5276;DHT22;2661;50.786;12.728;2023-03-22T12:37:34;15.20;99.90
5276;DHT22;2661;50.786;12.728;2023-03-22T12:40:19;15.30;99.90
5276;DHT22;2661;50.786;12.728;2023-03-22T12:43:02;15.30;99.90
5276;DHT22;2661;50.786;12.728;2023-03-22T12:45:32;15.20;99.90
5276;DHT22;2661;50.786;12.728;2023-03-22T12:48:14;15.20;99.90
5276;DHT22;2661;50.786;12.728;2023-03-22T12:50:55;15.10;99.90
5276;DHT22;2661;50.786;12.728;2023-03-22T12:53:24;15.10;99.90
5276;DHT22;2661;50.786;12.728;2023-03-22T12:55:52;15.20;99.90
5276;DHT22;2661;50.786;12.728;2023-03-22T12:58:21;15.20;99.90
5276;DHT22;2661;50.786;12.728;2023-03-22T13:00:52;15.10;99.90
5276;DHT22;2661;50.786;12.728;2023-03-22T13:03:28;15.20;99.90
5276;DHT22;2661;50.786;12.728;2023-03-22T13:09:02;15.20;99.90
5276;DHT22;2661;50.786;12.728;2023-03-22T13:11:29;15.30;99.90
5276;DHT22;2661;50.786;12.728;2023-03-22T13:13:56;15.50;99.90
5276;DHT22;2661;50.786;12.728;2023-03-22T13:16:24;15.60;99.90
5276;DHT22;2661;50.786;12.728;2023-03-22T13:19:16;15.60;99.90
5276;DHT22;2661;50.786;12.728;2023-03-22T13:21:43;15.70;99.90
5276;DHT22;2661;50.786;12.728;2023-03-22T13:26:44;15.80;99.90
5276;DHT22;2661;50.786;12.728;2023-03-22T13:29:17;15.70;99.90
5276;DHT22;2661;50.786;12.728;2023-03-22T13:31:45;15.70;99.90
5276;DHT22;2661;50.786;12.728;2023-03-22T13:34:13;15.60;99.90
5276;DHT22;2661;50.786;12.728;2023-03-22T13:36:47;15.60;99.90
5276;DHT22;2661;50.786;12.728;2023-03-22T13:39:14;15.50;99.90
5276;DHT22;2661;50.786;12.728;2023-03-22T13:41:42;15.50;99.90
5276;DHT22;2661;50.786;12.728;2023-03-22T13:44:24;15.60;99.90
5276;DHT22;2661;50.786;12.728;2023-03-22T13:46:52;15.60;99.90
5276;DHT22;2661;50.786;12.728;2023-03-22T13:49:42;15.60;99.90
5276;DHT22;2661;50.786;12.728;2023-03-22T13:52:20;15.60;99.90
5276;DHT22;2661;50.786;12.728;2023-03-22T13:54:48;15.60;99.90
5276;DHT22;2661;50.786;12.728;2023-03-22T13:57:15;15.60;99.90
5276;DHT22;2661;50.786;12.728;2023-03-22T14:00:02;15.50;99.90
5276;DHT22;2661;50.786;12.728;2023-03-22T14:02:40;15.50;99.90
5276;DHT22;2661;50.786;12.728;2023-03-22T14:05:12;15.50;99.90
5276;DHT22;2661;50.786;12.728;2023-03-22T14:07:41;15.50;99.90
5276;DHT22;2661;50.786;12.728;2023-03-22T14:10:17;15.60;99.90
5276;DHT22;2661;50.786;12.728;2023-03-22T14:15:31;15.70;99.90
5276;DHT22;2661;50.786;12.728;2023-03-22T14:18:01;15.60;99.90
5276;DHT22;2661;50.786;12.728;2023-03-22T14:20:33;15.60;99.90
5276;DHT22;2661;50.786;12.728;2023-03-22T14:23:08;15.60;99.90
5276;DHT22;2661;50.786;12.728;2023-03-22T14:25:36;15.50;99.90
5276;DHT22;2661;50.786;12.728;2023-03-22T14:28:03;15.50;99.90
5276;DHT22;2661;50.786;12.728;2023-03-22T14:33:11;15.30;99.90
5276;DHT22;2661;50.786;12.728;2023-03-22T14:35:41;15.20;99.90
5276;DHT22;2661;50.786;12.728;2023-03-22T14:38:11;15.20;99.90
5276;DHT22;2661;50.786;12.728;2023-03-22T14:40:38;15.20;99.90
5276;DHT22;2661;50.786;12.728;2023-03-22T14:45:38;15.20;99.90
5276;DHT22;2661;50.786;12.728;2023-03-22T14:48:17;15.10;99.90
5276;DHT22;2661;50.786;12.728;2023-03-22T14:50:46;15.10;99.90
5276;DHT22;2661;50.786;12.728;2023-03-22T14:53:12;15.10;99.90
5276;DHT22;2661;50.786;12.728;2023-03-22T14:55:38;15.10;99.90
5276;DHT22;2661;50.786;12.728;2023-03-22T14:58:05;15.00;99.90
5276;DHT22;2661;50.786;12.728;2023-03-22T15:00:33;15.00;99.90
5276;DHT22;2661;50.786;12.728;2023-03-22T15:03:03;14.90;99.90
5276;DHT22;2661;50.786;12.728;2023-03-22T15:05:37;14.90;99.90
5276;DHT22;2661;50.786;12.728;2023-03-22T15:10:30;14.70;99.90
5276;DHT22;2661;50.786;12.728;2023-03-22T15:12:56;14.70;99.90
5276;DHT22;2661;50.786;12.728;2023-03-22T15:15:25;14.60;99.90
5276;DHT22;2661;50.786;12.728;2023-03-22T15:17:51;14.60;99.90
5276;DHT22;2661;50.786;12.728;2023-03-22T15:20:21;14.70;99.90
5276;DHT22;2661;50.786;12.728;2023-03-22T15:22:54;14.70;99.90
5276;DHT22;2661;50.786;12.728;2023-03-22T15:25:26;14.80;99.90
5276;DHT22;2661;50.786;12.728;2023-03-22T15:27:52;15.00;99.90
5276;DHT22;2661;50.786;12.728;2023-03-22T15:30:18;15.00;99.90
5276;DHT22;2661;50.786;12.728;2023-03-22T15:32:44;15.00;99.90
5276;DHT22;2661;50.786;12.728;2023-03-22T15:35:12;15.00;99.90
5276;DHT22;2661;50.786;12.728;2023-03-22T15:37:38;15.00;99.90
5276;DHT22;2661;50.786;12.728;2023-03-22T15:40:04;15.00;99.90
5276;DHT22;2661;50.786;12.728;2023-03-22T15:45:38;15.00;99.90
5276;DHT22;2661;50.786;12.728;2023-03-22T15:47:46;14.90;99.90
5276;DHT22;2661;50.786;12.728;2023-03-22T15:50:15;14.90;99.90
5276;DHT22;2661;50.786;12.728;2023-03-22T15:55:14;14.80;99.90
5276;DHT22;2661;50.786;12.728;2023-03-22T15:58:03;14.80;99.90
5276;DHT22;2661;50.786;12.728;2023-03-22T16:00:32;14.80;99.90
5276;DHT22;2661;50.786;12.728;2023-03-22T16:05:29;14.60;99.90
5276;DHT22;2661;50.786;12.728;2023-03-22T16:07:55;14.50;99.90
5276;DHT22;2661;50.786;12.728;2023-03-22T16:10:23;14.60;99.90
5276;DHT22;2661;50.786;12.728;2023-03-22T16:12:49;14.60;99.90
5276;DHT22;2661;50.786;12.728;2023-03-22T16:15:19;14.50;99.90
5276;DHT22;2661;50.786;12.728;2023-03-22T16:17:45;14.40;99.90
5276;DHT22;2661;50.786;12.728;2023-03-22T16:20:11;14.30;99.90
5276;DHT22;2661;50.786;12.728;2023-03-22T16:22:37;14.20;99.90
5276;DHT22;2661;50.786;12.728;2023-03-22T16:25:03;14.20;99.90
5276;DHT22;2661;50.786;12.728;2023-03-22T16:27:29;14.10;99.90
5276;DHT22;2661;50.786;12.728;2023-03-22T16:29:54;14.10;99.90
5276;DHT22;2661;50.786;12.728;2023-03-22T16:32:22;13.90;99.90
5276;DHT22;2661;50.786;12.728;2023-03-22T16:34:48;13.80;99.90
5276;DHT22;2661;50.786;12.728;2023-03-22T16:37:15;13.70;99.90
5276;DHT22;2661;50.786;12.728;2023-03-22T16:39:41;13.60;99.90
5276;DHT22;2661;50.786;12.728;2023-03-22T16:42:10;13.50;99.90
5276;DHT22;2661;50.786;12.728;2023-03-22T16:44:36;13.50;99.90
5276;DHT22;2661;50.786;12.728;2023-03-22T16:47:02;13.30;99.90
5276;DHT22;2661;50.786;12.728;2023-03-22T16:49:27;13.20;99.90
5276;DHT22;2661;50.786;12.728;2023-03-22T16:51:53;13.00;99.90
5276;DHT22;2661;50.786;12.728;2023-03-22T16:54:19;12.90;99.90
5276;DHT22;2661;50.786;12.728;2023-03-22T16:56:44;12.80;99.90
5276;DHT22;2661;50.786;12.728;2023-03-22T16:59:10;12.70;99.90
5276;DHT22;2661;50.786;12.728;2023-03-22T17:01:35;12.60;99.90
5276;DHT22;2661;50.786;12.728;2023-03-22T17:04:01;12.80;99.90
5276;DHT22;2661;50.786;12.728;2023-03-22T17:06:26;12.80;99.90
5276;DHT22;2661;50.786;12.728;2023-03-22T17:08:52;12.80;99.90
5276;DHT22;2661;50.786;12.728;2023-03-22T17:11:19;12.80;99.90
5276;DHT22;2661;50.786;12.728;2023-03-22T17:13:51;12.70;99.90
5276;DHT22;2661;50.786;12.728;2023-03-22T17:16:17;12.70;99.90
5276;DHT22;2661;50.786;12.728;2023-03-22T17:18:43;12.60;99.90